sensor_id;sensor_type;location;lat;lon;timestamp;pressure;altitude;pressure_sealevel;temperature
68027;BMP180;54819;48.030;14.710;2022-11-15T00:01:30;97598.00;;;7.90
68027;BMP180;54819;48.030;14.710;2022-11-15T00:04:16;97595.00;;;7.80
68027;BMP180;54819;48.030;14.710;2022-11-15T00:07:01;97594.20;;;7.80
68027;BMP180;54819;48.030;14.710;2022-11-15T00:09:47;97596.20;;;7.80
68027;BMP180;54819;48.030;14.710;2022-11-15T00:12:33;97593.80;;;7.80
68027;BMP180;54819;48.030;14.710;2022-11-15T00:15:18;97594.40;;;7.80
68027;BMP180;54819;48.030;14.710;2022-11-15T00:18:06;97597.60;;;7.70
68027;BMP180;54819;48.030;14.710;2022-11-15T00:20:52;97601.00;;;7.70
68027;BMP180;54819;48.030;14.710;2022-11-15T00:23:37;97606.00;;;7.70
68027;BMP180;54819;48.030;14.710;2022-11-15T00:26:23;97600.00;;;7.66
68027;BMP180;54819;48.030;14.710;2022-11-15T00:29:08;97589.40;;;7.60
68027;BMP180;54819;48.030;14.710;2022-11-15T00:31:54;97592.80;;;7.60
68027;BMP180;54819;48.030;14.710;2022-11-15T00:34:40;97596.40;;;7.52
68027;BMP180;54819;48.030;14.710;2022-11-15T00:37:25;97597.00;;;7.50
68027;BMP180;54819;48.030;14.710;2022-11-15T00:40:11;97593.00;;;7.50
68027;BMP180;54819;48.030;14.710;2022-11-15T00:42:58;97584.40;;;7.40
68027;BMP180;54819;48.030;14.710;2022-11-15T00:45:44;97581.60;;;7.40
68027;BMP180;54819;48.030;14.710;2022-11-15T00:48:30;97577.40;;;7.40
68027;BMP180;54819;48.030;14.710;2022-11-15T00:51:16;97578.20;;;7.40
68027;BMP180;54819;48.030;14.710;2022-11-15T00:54:02;97576.00;;;7.34
68027;BMP180;54819;48.030;14.710;2022-11-15T00:56:47;97574.00;;;7.30
68027;BMP180;54819;48.030;14.710;2022-11-15T00:59:33;97571.40;;;7.30
68027;BMP180;54819;48.030;14.710;2022-11-15T01:02:18;97566.40;;;7.26
68027;BMP180;54819;48.030;14.710;2022-11-15T01:05:05;97570.40;;;7.20
68027;BMP180;54819;48.030;14.710;2022-11-15T01:07:52;97575.40;;;7.20
68027;BMP180;54819;48.030;14.710;2022-11-15T01:10:38;97571.40;;;7.16
68027;BMP180;54819;48.030;14.710;2022-11-15T01:13:23;97574.40;;;7.10
68027;BMP180;54819;48.030;14.710;2022-11-15T01:16:14;97571.20;;;7.10
68027;BMP180;54819;48.030;14.710;2022-11-15T01:19:00;97563.40;;;7.10
68027;BMP180;54819;48.030;14.710;2022-11-15T01:21:49;97561.00;;;7.10
68027;BMP180;54819;48.030;14.710;2022-11-15T01:24:35;97561.80;;;7.10
68027;BMP180;54819;48.030;14.710;2022-11-15T01:27:21;97560.00;;;7.06
68027;BMP180;54819;48.030;14.710;2022-11-15T01:30:07;97566.80;;;7.00
68027;BMP180;54819;48.030;14.710;2022-11-15T01:32:53;97568.80;;;7.00
68027;BMP180;54819;48.030;14.710;2022-11-15T01:35:39;97570.40;;;7.00
68027;BMP180;54819;48.030;14.710;2022-11-15T01:38:25;97566.60;;;7.00
68027;BMP180;54819;48.030;14.710;2022-11-15T01:41:20;97556.20;;;6.98
68027;BMP180;54819;48.030;14.710;2022-11-15T01:44:36;97560.60;;;7.00
68027;BMP180;54819;48.030;14.710;2022-11-15T01:47:35;97560.20;;;7.00
68027;BMP180;54819;48.030;14.710;2022-11-15T01:50:32;97558.20;;;7.00
68027;BMP180;54819;48.030;14.710;2022-11-15T01:53:21;97551.80;;;7.00
68027;BMP180;54819;48.030;14.710;2022-11-15T01:56:19;97551.20;;;6.98
68027;BMP180;54819;48.030;14.710;2022-11-15T01:59:08;97550.80;;;6.98
68027;BMP180;54819;48.030;14.710;2022-11-15T02:01:54;97558.60;;;7.00
68027;BMP180;54819;48.030;14.710;2022-11-15T02:04:44;97558.60;;;7.00
68027;BMP180;54819;48.030;14.710;2022-11-15T02:07:34;97550.40;;;6.98
68027;BMP180;54819;48.030;14.710;2022-11-15T02:10:24;97553.80;;;6.90
68027;BMP180;54819;48.030;14.710;2022-11-15T02:13:10;97546.60;;;6.90
68027;BMP180;54819;48.030;14.710;2022-11-15T02:25:39;97540.60;;;6.70
68027;BMP180;54819;48.030;14.710;2022-11-15T02:32:08;97524.20;;;6.70
68027;BMP180;54819;48.030;14.710;2022-11-15T02:35:16;97521.80;;;6.70
68027;BMP180;54819;48.030;14.710;2022-11-15T02:44:35;97514.40;;;6.80
68027;BMP180;54819;48.030;14.710;2022-11-15T02:47:24;97512.00;;;6.90
68027;BMP180;54819;48.030;14.710;2022-11-15T02:50:17;97506.80;;;6.94
68027;BMP180;54819;48.030;14.710;2022-11-15T02:53:03;97505.40;;;7.00
68027;BMP180;54819;48.030;14.710;2022-11-15T02:55:51;97500.00;;;6.98
68027;BMP180;54819;48.030;14.710;2022-11-15T03:05:09;97501.80;;;6.70
68027;BMP180;54819;48.030;14.710;2022-11-15T03:17:16;97483.60;;;6.50
68027;BMP180;54819;48.030;14.710;2022-11-15T03:20:07;97479.60;;;6.50
68027;BMP180;54819;48.030;14.710;2022-11-15T03:23:03;97482.60;;;6.50
68027;BMP180;54819;48.030;14.710;2022-11-15T03:25:52;97484.00;;;6.40
68027;BMP180;54819;48.030;14.710;2022-11-15T03:28:50;97477.80;;;6.40
68027;BMP180;54819;48.030;14.710;2022-11-15T03:31:43;97476.40;;;6.40
68027;BMP180;54819;48.030;14.710;2022-11-15T03:34:51;97471.20;;;6.40
68027;BMP180;54819;48.030;14.710;2022-11-15T03:40:51;97470.60;;;6.32
68027;BMP180;54819;48.030;14.710;2022-11-15T03:43:51;97473.00;;;6.30
68027;BMP180;54819;48.030;14.710;2022-11-15T03:47:07;97472.40;;;6.22
68027;BMP180;54819;48.030;14.710;2022-11-15T03:50:09;97468.00;;;6.20
68027;BMP180;54819;48.030;14.710;2022-11-15T03:52:56;97471.00;;;6.20
68027;BMP180;54819;48.030;14.710;2022-11-15T03:55:42;97470.80;;;6.10
68027;BMP180;54819;48.030;14.710;2022-11-15T03:58:28;97473.20;;;6.10
68027;BMP180;54819;48.030;14.710;2022-11-15T04:01:13;97471.80;;;6.10
68027;BMP180;54819;48.030;14.710;2022-11-15T04:03:59;97469.00;;;6.02
68027;BMP180;54819;48.030;14.710;2022-11-15T04:06:45;97463.20;;;6.00
68027;BMP180;54819;48.030;14.710;2022-11-15T04:09:31;97458.00;;;6.00
68027;BMP180;54819;48.030;14.710;2022-11-15T04:12:16;97459.40;;;6.00
68027;BMP180;54819;48.030;14.710;2022-11-15T04:15:23;97459.40;;;6.00
68027;BMP180;54819;48.030;14.710;2022-11-15T04:18:08;97451.00;;;5.90
68027;BMP180;54819;48.030;14.710;2022-11-15T04:20:54;97449.20;;;5.88
68027;BMP180;54819;48.030;14.710;2022-11-15T04:23:58;97452.00;;;5.80
68027;BMP180;54819;48.030;14.710;2022-11-15T04:26:52;97447.40;;;5.80
68027;BMP180;54819;48.030;14.710;2022-11-15T04:29:38;97441.60;;;5.80
68027;BMP180;54819;48.030;14.710;2022-11-15T04:32:23;97436.20;;;5.90
68027;BMP180;54819;48.030;14.710;2022-11-15T04:35:09;97437.00;;;6.00
68027;BMP180;54819;48.030;14.710;2022-11-15T04:37:56;97442.60;;;6.04
68027;BMP180;54819;48.030;14.710;2022-11-15T04:40:42;97445.40;;;6.16
68027;BMP180;54819;48.030;14.710;2022-11-15T04:43:29;97442.60;;;6.30
68027;BMP180;54819;48.030;14.710;2022-11-15T04:46:14;97448.20;;;6.30
68027;BMP180;54819;48.030;14.710;2022-11-15T04:49:01;97443.00;;;6.26
68027;BMP180;54819;48.030;14.710;2022-11-15T04:51:46;97434.80;;;6.30
68027;BMP180;54819;48.030;14.710;2022-11-15T04:54:31;97424.00;;;6.30
68027;BMP180;54819;48.030;14.710;2022-11-15T04:57:17;97421.20;;;6.30
68027;BMP180;54819;48.030;14.710;2022-11-15T05:00:14;97421.20;;;6.40
68027;BMP180;54819;48.030;14.710;2022-11-15T05:03:00;97421.20;;;6.40
68027;BMP180;54819;48.030;14.710;2022-11-15T05:06:05;97418.20;;;6.40
68027;BMP180;54819;48.030;14.710;2022-11-15T05:08:51;97413.00;;;6.40
68027;BMP180;54819;48.030;14.710;2022-11-15T05:11:36;97418.80;;;6.30
68027;BMP180;54819;48.030;14.710;2022-11-15T05:14:22;97416.20;;;6.30
68027;BMP180;54819;48.030;14.710;2022-11-15T05:17:08;97416.60;;;6.36
68027;BMP180;54819;48.030;14.710;2022-11-15T05:19:54;97413.40;;;6.36
68027;BMP180;54819;48.030;14.710;2022-11-15T05:22:39;97414.20;;;6.40
68027;BMP180;54819;48.030;14.710;2022-11-15T05:25:25;97412.40;;;6.40
68027;BMP180;54819;48.030;14.710;2022-11-15T05:28:11;97405.60;;;6.40
68027;BMP180;54819;48.030;14.710;2022-11-15T05:31:09;97410.80;;;6.40
68027;BMP180;54819;48.030;14.710;2022-11-15T05:33:57;97409.20;;;6.30
68027;BMP180;54819;48.030;14.710;2022-11-15T05:36:44;97404.20;;;6.30
68027;BMP180;54819;48.030;14.710;2022-11-15T05:39:31;97407.60;;;6.30
68027;BMP180;54819;48.030;14.710;2022-11-15T05:42:17;97408.40;;;6.30
68027;BMP180;54819;48.030;14.710;2022-11-15T05:45:06;97406.00;;;6.30
68027;BMP180;54819;48.030;14.710;2022-11-15T05:47:56;97411.60;;;6.30
68027;BMP180;54819;48.030;14.710;2022-11-15T05:50:47;97406.80;;;6.40
68027;BMP180;54819;48.030;14.710;2022-11-15T05:53:33;97402.80;;;6.40
68027;BMP180;54819;48.030;14.710;2022-11-15T05:56:20;97404.40;;;6.40
68027;BMP180;54819;48.030;14.710;2022-11-15T05:59:08;97391.60;;;6.44
68027;BMP180;54819;48.030;14.710;2022-11-15T06:01:54;97391.60;;;6.40
68027;BMP180;54819;48.030;14.710;2022-11-15T06:04:40;97389.80;;;6.50
68027;BMP180;54819;48.030;14.710;2022-11-15T06:07:26;97397.40;;;6.52
68027;BMP180;54819;48.030;14.710;2022-11-15T06:10:12;97397.20;;;6.60
68027;BMP180;54819;48.030;14.710;2022-11-15T06:13:04;97397.80;;;6.62
68027;BMP180;54819;48.030;14.710;2022-11-15T06:15:50;97392.40;;;6.70
68027;BMP180;54819;48.030;14.710;2022-11-15T06:18:37;97387.60;;;6.74
68027;BMP180;54819;48.030;14.710;2022-11-15T06:21:22;97388.00;;;6.80
68027;BMP180;54819;48.030;14.710;2022-11-15T06:24:08;97385.80;;;6.80
68027;BMP180;54819;48.030;14.710;2022-11-15T06:26:54;97391.00;;;6.80
68027;BMP180;54819;48.030;14.710;2022-11-15T06:29:40;97395.00;;;6.80
68027;BMP180;54819;48.030;14.710;2022-11-15T06:32:26;97392.20;;;6.80
68027;BMP180;54819;48.030;14.710;2022-11-15T06:35:13;97391.60;;;6.70
68027;BMP180;54819;48.030;14.710;2022-11-15T06:38:09;97397.60;;;6.70
68027;BMP180;54819;48.030;14.710;2022-11-15T06:40:55;97397.40;;;6.70
68027;BMP180;54819;48.030;14.710;2022-11-15T06:43:46;97397.00;;;6.60
68027;BMP180;54819;48.030;14.710;2022-11-15T06:46:31;97398.80;;;6.60
68027;BMP180;54819;48.030;14.710;2022-11-15T06:49:17;97401.00;;;6.60
68027;BMP180;54819;48.030;14.710;2022-11-15T06:52:02;97399.60;;;6.60
68027;BMP180;54819;48.030;14.710;2022-11-15T06:54:48;97392.40;;;6.60
68027;BMP180;54819;48.030;14.710;2022-11-15T06:57:34;97388.00;;;6.70
68027;BMP180;54819;48.030;14.710;2022-11-15T07:00:22;97392.20;;;6.64
68027;BMP180;54819;48.030;14.710;2022-11-15T07:03:08;97398.60;;;6.80
68027;BMP180;54819;48.030;14.710;2022-11-15T07:05:56;97398.00;;;6.88
68027;BMP180;54819;48.030;14.710;2022-11-15T07:08:51;97396.40;;;6.92
68027;BMP180;54819;48.030;14.710;2022-11-15T07:11:36;97393.20;;;7.00
68027;BMP180;54819;48.030;14.710;2022-11-15T07:14:22;97393.80;;;7.10
68027;BMP180;54819;48.030;14.710;2022-11-15T07:17:07;97402.80;;;7.20
68027;BMP180;54819;48.030;14.710;2022-11-15T07:19:53;97400.40;;;7.30
68027;BMP180;54819;48.030;14.710;2022-11-15T07:22:40;97398.60;;;7.40
68027;BMP180;54819;48.030;14.710;2022-11-15T07:25:25;97404.60;;;7.50
68027;BMP180;54819;48.030;14.710;2022-11-15T07:28:11;97405.80;;;7.60
68027;BMP180;54819;48.030;14.710;2022-11-15T07:30:56;97412.00;;;7.68
68027;BMP180;54819;48.030;14.710;2022-11-15T07:33:42;97407.40;;;7.70
68027;BMP180;54819;48.030;14.710;2022-11-15T07:36:27;97395.40;;;7.70
68027;BMP180;54819;48.030;14.710;2022-11-15T07:39:13;97389.00;;;7.70
68027;BMP180;54819;48.030;14.710;2022-11-15T07:41:59;97392.00;;;7.70
68027;BMP180;54819;48.030;14.710;2022-11-15T07:45:04;97391.60;;;7.74
68027;BMP180;54819;48.030;14.710;2022-11-15T07:47:50;97391.40;;;7.80
68027;BMP180;54819;48.030;14.710;2022-11-15T07:50:36;97380.60;;;7.90
68027;BMP180;54819;48.030;14.710;2022-11-15T07:53:21;97369.80;;;7.98
68027;BMP180;54819;48.030;14.710;2022-11-15T07:56:08;97386.20;;;8.06
68027;BMP180;54819;48.030;14.710;2022-11-15T07:58:54;97385.80;;;8.04
68027;BMP180;54819;48.030;14.710;2022-11-15T08:01:39;97377.20;;;7.90
68027;BMP180;54819;48.030;14.710;2022-11-15T08:04:25;97376.80;;;7.90
68027;BMP180;54819;48.030;14.710;2022-11-15T08:07:11;97374.80;;;7.80
68027;BMP180;54819;48.030;14.710;2022-11-15T08:09:57;97373.40;;;7.80
68027;BMP180;54819;48.030;14.710;2022-11-15T08:12:43;97370.60;;;7.80
68027;BMP180;54819;48.030;14.710;2022-11-15T08:15:30;97372.60;;;7.80
68027;BMP180;54819;48.030;14.710;2022-11-15T08:18:17;97372.80;;;7.80
68027;BMP180;54819;48.030;14.710;2022-11-15T08:21:04;97370.20;;;7.80
68027;BMP180;54819;48.030;14.710;2022-11-15T08:23:49;97364.20;;;7.80
68027;BMP180;54819;48.030;14.710;2022-11-15T08:26:35;97363.20;;;7.80
68027;BMP180;54819;48.030;14.710;2022-11-15T08:29:20;97369.80;;;7.80
68027;BMP180;54819;48.030;14.710;2022-11-15T08:32:06;97373.80;;;7.80
68027;BMP180;54819;48.030;14.710;2022-11-15T08:34:52;97366.40;;;7.70
68027;BMP180;54819;48.030;14.710;2022-11-15T08:37:38;97368.40;;;7.70
68027;BMP180;54819;48.030;14.710;2022-11-15T08:40:23;97368.60;;;7.70
68027;BMP180;54819;48.030;14.710;2022-11-15T08:43:09;97368.80;;;7.70
68027;BMP180;54819;48.030;14.710;2022-11-15T08:45:58;97364.80;;;7.72
68027;BMP180;54819;48.030;14.710;2022-11-15T08:48:43;97360.40;;;7.80
68027;BMP180;54819;48.030;14.710;2022-11-15T08:51:29;97359.60;;;7.88
68027;BMP180;54819;48.030;14.710;2022-11-15T08:54:15;97358.40;;;8.00
68027;BMP180;54819;48.030;14.710;2022-11-15T08:57:00;97352.00;;;8.10
68027;BMP180;54819;48.030;14.710;2022-11-15T08:59:46;97351.20;;;8.20
68027;BMP180;54819;48.030;14.710;2022-11-15T09:02:31;97354.40;;;8.30
68027;BMP180;54819;48.030;14.710;2022-11-15T09:05:17;97351.80;;;8.30
68027;BMP180;54819;48.030;14.710;2022-11-15T09:08:04;97348.00;;;8.34
68027;BMP180;54819;48.030;14.710;2022-11-15T09:11:10;97346.00;;;8.46
68027;BMP180;54819;48.030;14.710;2022-11-15T09:13:55;97354.80;;;8.58
68027;BMP180;54819;48.030;14.710;2022-11-15T09:16:41;97352.40;;;8.62
68027;BMP180;54819;48.030;14.710;2022-11-15T09:19:27;97350.40;;;8.70
68027;BMP180;54819;48.030;14.710;2022-11-15T09:22:12;97349.80;;;8.70
68027;BMP180;54819;48.030;14.710;2022-11-15T09:24:58;97353.60;;;8.74
68027;BMP180;54819;48.030;14.710;2022-11-15T09:27:43;97348.60;;;8.80
68027;BMP180;54819;48.030;14.710;2022-11-15T09:30:29;97350.40;;;8.90
68027;BMP180;54819;48.030;14.710;2022-11-15T09:33:14;97346.00;;;8.90
68027;BMP180;54819;48.030;14.710;2022-11-15T09:36:09;97337.80;;;8.90
68027;BMP180;54819;48.030;14.710;2022-11-15T09:38:57;97337.20;;;8.80
68027;BMP180;54819;48.030;14.710;2022-11-15T09:45:31;97336.20;;;8.60
68027;BMP180;54819;48.030;14.710;2022-11-15T09:48:51;97333.80;;;8.54
68027;BMP180;54819;48.030;14.710;2022-11-15T09:51:41;97325.40;;;8.50
68027;BMP180;54819;48.030;14.710;2022-11-15T09:57:31;97325.00;;;8.50
68027;BMP180;54819;48.030;14.710;2022-11-15T10:00:12;97325.80;;;8.50
68027;BMP180;54819;48.030;14.710;2022-11-15T10:05:43;97323.40;;;8.60
68027;BMP180;54819;48.030;14.710;2022-11-15T10:08:45;97313.40;;;8.70
68027;BMP180;54819;48.030;14.710;2022-11-15T10:11:20;97306.60;;;8.80
68027;BMP180;54819;48.030;14.710;2022-11-15T10:14:15;97295.20;;;8.80
68027;BMP180;54819;48.030;14.710;2022-11-15T10:17:02;97287.00;;;8.90
68027;BMP180;54819;48.030;14.710;2022-11-15T10:22:37;97280.80;;;9.10
68027;BMP180;54819;48.030;14.710;2022-11-15T10:27:36;97265.20;;;9.20
68027;BMP180;54819;48.030;14.710;2022-11-15T10:30:11;97266.00;;;9.20
68027;BMP180;54819;48.030;14.710;2022-11-15T10:32:42;97260.80;;;9.20
68027;BMP180;54819;48.030;14.710;2022-11-15T10:35:22;97260.00;;;9.20
68027;BMP180;54819;48.030;14.710;2022-11-15T10:37:49;97255.00;;;9.20
68027;BMP180;54819;48.030;14.710;2022-11-15T10:40:23;97252.00;;;9.20
68027;BMP180;54819;48.030;14.710;2022-11-15T10:43:12;97242.20;;;9.20
68027;BMP180;54819;48.030;14.710;2022-11-15T10:45:41;97236.20;;;9.20
68027;BMP180;54819;48.030;14.710;2022-11-15T10:50:44;97227.40;;;9.20
68027;BMP180;54819;48.030;14.710;2022-11-15T10:53:20;97227.00;;;9.20
68027;BMP180;54819;48.030;14.710;2022-11-15T10:55:52;97221.20;;;9.20
68027;BMP180;54819;48.030;14.710;2022-11-15T10:58:33;97224.60;;;9.28
68027;BMP180;54819;48.030;14.710;2022-11-15T11:01:22;97214.60;;;9.30
68027;BMP180;54819;48.030;14.710;2022-11-15T11:04:05;97216.40;;;9.38
68027;BMP180;54819;48.030;14.710;2022-11-15T11:06:57;97213.80;;;9.36
68027;BMP180;54819;48.030;14.710;2022-11-15T11:09:38;97207.00;;;9.40
68027;BMP180;54819;48.030;14.710;2022-11-15T11:12:10;97199.40;;;9.36
68027;BMP180;54819;48.030;14.710;2022-11-15T11:14:39;97194.20;;;9.30
68027;BMP180;54819;48.030;14.710;2022-11-15T11:17:17;97186.40;;;9.30
68027;BMP180;54819;48.030;14.710;2022-11-15T11:19:59;97183.20;;;9.30
68027;BMP180;54819;48.030;14.710;2022-11-15T11:25:46;97171.20;;;9.38
68027;BMP180;54819;48.030;14.710;2022-11-15T11:31:50;97162.60;;;9.20
68027;BMP180;54819;48.030;14.710;2022-11-15T11:37:30;97157.80;;;9.20
68027;BMP180;54819;48.030;14.710;2022-11-15T11:49:09;97153.80;;;9.26
68027;BMP180;54819;48.030;14.710;2022-11-15T11:51:45;97155.00;;;9.20
68027;BMP180;54819;48.030;14.710;2022-11-15T11:54:29;97156.80;;;9.24
68027;BMP180;54819;48.030;14.710;2022-11-15T11:57:00;97153.80;;;9.20
68027;BMP180;54819;48.030;14.710;2022-11-15T11:59:58;97149.60;;;9.12
68027;BMP180;54819;48.030;14.710;2022-11-15T12:02:34;97140.20;;;9.10
68027;BMP180;54819;48.030;14.710;2022-11-15T12:05:13;97136.00;;;9.10
68027;BMP180;54819;48.030;14.710;2022-11-15T12:07:45;97133.80;;;9.00
68027;BMP180;54819;48.030;14.710;2022-11-15T12:10:28;97124.60;;;8.90
68027;BMP180;54819;48.030;14.710;2022-11-15T12:13:06;97122.60;;;8.70
68027;BMP180;54819;48.030;14.710;2022-11-15T12:15:50;97113.40;;;8.70
68027;BMP180;54819;48.030;14.710;2022-11-15T12:18:18;97105.60;;;8.60
68027;BMP180;54819;48.030;14.710;2022-11-15T12:21:02;97100.20;;;8.60
68027;BMP180;54819;48.030;14.710;2022-11-15T12:23:45;97091.40;;;8.60
68027;BMP180;54819;48.030;14.710;2022-11-15T12:26:26;97092.00;;;8.60
68027;BMP180;54819;48.030;14.710;2022-11-15T12:28:59;97089.60;;;8.70
68027;BMP180;54819;48.030;14.710;2022-11-15T12:34:15;97086.40;;;8.70
68027;BMP180;54819;48.030;14.710;2022-11-15T12:36:55;97088.60;;;8.70
68027;BMP180;54819;48.030;14.710;2022-11-15T12:40:04;97084.20;;;8.70
68027;BMP180;54819;48.030;14.710;2022-11-15T12:44:58;97075.80;;;8.70
68027;BMP180;54819;48.030;14.710;2022-11-15T12:47:26;97070.80;;;8.60
68027;BMP180;54819;48.030;14.710;2022-11-15T12:49:54;97069.60;;;8.60
68027;BMP180;54819;48.030;14.710;2022-11-15T12:52:21;97063.20;;;8.60
68027;BMP180;54819;48.030;14.710;2022-11-15T12:54:56;97063.20;;;8.60
68027;BMP180;54819;48.030;14.710;2022-11-15T12:57:34;97069.20;;;8.52
68027;BMP180;54819;48.030;14.710;2022-11-15T13:03:23;97077.20;;;8.50
68027;BMP180;54819;48.030;14.710;2022-11-15T13:05:58;97068.60;;;8.50
68027;BMP180;54819;48.030;14.710;2022-11-15T13:08:45;97060.40;;;8.50
68027;BMP180;54819;48.030;14.710;2022-11-15T13:11:45;97056.40;;;8.50
68027;BMP180;54819;48.030;14.710;2022-11-15T13:14:47;97049.80;;;8.42
68027;BMP180;54819;48.030;14.710;2022-11-15T13:17:36;97045.00;;;8.40
68027;BMP180;54819;48.030;14.710;2022-11-15T13:22:48;97040.20;;;8.40
68027;BMP180;54819;48.030;14.710;2022-11-15T13:30:52;97022.40;;;8.40
68027;BMP180;54819;48.030;14.710;2022-11-15T13:33:37;97022.60;;;8.40
68027;BMP180;54819;48.030;14.710;2022-11-15T13:36:26;97018.80;;;8.50
68027;BMP180;54819;48.030;14.710;2022-11-15T13:39:05;97019.00;;;8.40
68027;BMP180;54819;48.030;14.710;2022-11-15T13:41:36;97018.60;;;8.40
68027;BMP180;54819;48.030;14.710;2022-11-15T13:47:19;97014.40;;;8.50
68027;BMP180;54819;48.030;14.710;2022-11-15T13:49:46;97007.40;;;8.50
68027;BMP180;54819;48.030;14.710;2022-11-15T13:52:15;97006.00;;;8.50
68027;BMP180;54819;48.030;14.710;2022-11-15T13:55:02;96999.40;;;8.46
68027;BMP180;54819;48.030;14.710;2022-11-15T14:00:42;97000.00;;;8.44
68027;BMP180;54819;48.030;14.710;2022-11-15T14:06:15;96989.40;;;8.50
68027;BMP180;54819;48.030;14.710;2022-11-15T14:11:33;96985.20;;;8.58
68027;BMP180;54819;48.030;14.710;2022-11-15T14:16:46;96974.20;;;8.60
68027;BMP180;54819;48.030;14.710;2022-11-15T14:19:35;96970.40;;;8.60
68027;BMP180;54819;48.030;14.710;2022-11-15T14:22:27;96975.40;;;8.56
68027;BMP180;54819;48.030;14.710;2022-11-15T14:25:15;96980.40;;;8.60
68027;BMP180;54819;48.030;14.710;2022-11-15T14:30:39;96986.60;;;8.50
68027;BMP180;54819;48.030;14.710;2022-11-15T14:33:33;96993.20;;;8.50
68027;BMP180;54819;48.030;14.710;2022-11-15T14:36:19;96980.20;;;8.50
68027;BMP180;54819;48.030;14.710;2022-11-15T14:38:47;96975.60;;;8.40
68027;BMP180;54819;48.030;14.710;2022-11-15T14:41:24;96973.60;;;8.30
68027;BMP180;54819;48.030;14.710;2022-11-15T14:43:53;96976.00;;;8.30
68027;BMP180;54819;48.030;14.710;2022-11-15T14:46:20;96977.20;;;8.30
68027;BMP180;54819;48.030;14.710;2022-11-15T14:48:47;96971.60;;;8.30
68027;BMP180;54819;48.030;14.710;2022-11-15T14:51:17;96965.20;;;8.30
68027;BMP180;54819;48.030;14.710;2022-11-15T14:53:46;96958.20;;;8.20
68027;BMP180;54819;48.030;14.710;2022-11-15T14:56:14;96965.60;;;8.20
68027;BMP180;54819;48.030;14.710;2022-11-15T14:58:42;96969.40;;;8.10
68027;BMP180;54819;48.030;14.710;2022-11-15T15:01:30;96967.20;;;8.10
68027;BMP180;54819;48.030;14.710;2022-11-15T15:03:57;96968.60;;;8.10
68027;BMP180;54819;48.030;14.710;2022-11-15T15:06:25;96971.60;;;8.10
68027;BMP180;54819;48.030;14.710;2022-11-15T15:08:52;96967.20;;;8.10
68027;BMP180;54819;48.030;14.710;2022-11-15T15:11:25;96962.60;;;8.10
68027;BMP180;54819;48.030;14.710;2022-11-15T15:13:54;96967.60;;;8.08
68027;BMP180;54819;48.030;14.710;2022-11-15T15:16:26;96971.60;;;8.10
68027;BMP180;54819;48.030;14.710;2022-11-15T15:18:53;96959.80;;;8.02
68027;BMP180;54819;48.030;14.710;2022-11-15T15:21:23;96958.20;;;8.02
68027;BMP180;54819;48.030;14.710;2022-11-15T15:23:51;96951.60;;;8.00
68027;BMP180;54819;48.030;14.710;2022-11-15T15:26:22;96951.80;;;8.00
68027;BMP180;54819;48.030;14.710;2022-11-15T15:28:50;96951.60;;;8.04
68027;BMP180;54819;48.030;14.710;2022-11-15T15:31:18;96956.20;;;8.00
68027;BMP180;54819;48.030;14.710;2022-11-15T15:33:45;96954.20;;;8.00
68027;BMP180;54819;48.030;14.710;2022-11-15T15:36:17;96944.00;;;8.00
68027;BMP180;54819;48.030;14.710;2022-11-15T15:38:45;96933.40;;;7.92
68027;BMP180;54819;48.030;14.710;2022-11-15T15:41:15;96926.80;;;7.90
68027;BMP180;54819;48.030;14.710;2022-11-15T15:43:43;96928.80;;;7.90
68027;BMP180;54819;48.030;14.710;2022-11-15T15:46:17;96927.40;;;7.90
68027;BMP180;54819;48.030;14.710;2022-11-15T15:48:45;96927.60;;;7.94
68027;BMP180;54819;48.030;14.710;2022-11-15T15:51:13;96926.40;;;8.00
68027;BMP180;54819;48.030;14.710;2022-11-15T15:53:47;96930.00;;;8.00
68027;BMP180;54819;48.030;14.710;2022-11-15T15:56:14;96938.40;;;8.00
68027;BMP180;54819;48.030;14.710;2022-11-15T15:58:41;96944.40;;;8.00
68027;BMP180;54819;48.030;14.710;2022-11-15T16:01:08;96941.60;;;8.08
68027;BMP180;54819;48.030;14.710;2022-11-15T16:03:35;96940.00;;;8.10
68027;BMP180;54819;48.030;14.710;2022-11-15T16:06:02;96943.40;;;8.10
68027;BMP180;54819;48.030;14.710;2022-11-15T16:08:31;96947.20;;;8.14
68027;BMP180;54819;48.030;14.710;2022-11-15T16:11:17;96952.40;;;8.20
68027;BMP180;54819;48.030;14.710;2022-11-15T16:13:44;96944.20;;;8.20
68027;BMP180;54819;48.030;14.710;2022-11-15T16:16:13;96937.00;;;8.20
68027;BMP180;54819;48.030;14.710;2022-11-15T16:18:41;96933.20;;;8.20
68027;BMP180;54819;48.030;14.710;2022-11-15T16:21:08;96925.00;;;8.18
68027;BMP180;54819;48.030;14.710;2022-11-15T16:23:35;96929.40;;;8.12
68027;BMP180;54819;48.030;14.710;2022-11-15T16:26:19;96928.40;;;8.10
68027;BMP180;54819;48.030;14.710;2022-11-15T16:28:46;96925.60;;;8.10
68027;BMP180;54819;48.030;14.710;2022-11-15T16:31:14;96926.60;;;8.12
68027;BMP180;54819;48.030;14.710;2022-11-15T16:33:41;96929.60;;;8.18
68027;BMP180;54819;48.030;14.710;2022-11-15T16:36:23;96927.00;;;8.10
68027;BMP180;54819;48.030;14.710;2022-11-15T16:38:57;96924.00;;;8.10
68027;BMP180;54819;48.030;14.710;2022-11-15T16:41:24;96929.80;;;8.10
68027;BMP180;54819;48.030;14.710;2022-11-15T16:43:52;96930.20;;;8.10
68027;BMP180;54819;48.030;14.710;2022-11-15T16:46:25;96925.40;;;8.20
68027;BMP180;54819;48.030;14.710;2022-11-15T16:48:53;96919.40;;;8.24
68027;BMP180;54819;48.030;14.710;2022-11-15T16:51:21;96921.80;;;8.30
68027;BMP180;54819;48.030;14.710;2022-11-15T16:53:49;96915.80;;;8.40
68027;BMP180;54819;48.030;14.710;2022-11-15T16:56:28;96912.60;;;8.40
68027;BMP180;54819;48.030;14.710;2022-11-15T16:58:58;96914.60;;;8.40
68027;BMP180;54819;48.030;14.710;2022-11-15T17:01:34;96920.40;;;8.50
68027;BMP180;54819;48.030;14.710;2022-11-15T17:04:03;96916.80;;;8.60
68027;BMP180;54819;48.030;14.710;2022-11-15T17:06:40;96915.20;;;8.70
68027;BMP180;54819;48.030;14.710;2022-11-15T17:09:20;96911.60;;;8.72
68027;BMP180;54819;48.030;14.710;2022-11-15T17:11:51;96904.40;;;8.80
68027;BMP180;54819;48.030;14.710;2022-11-15T17:14:19;96902.40;;;8.82
68027;BMP180;54819;48.030;14.710;2022-11-15T17:16:47;96904.20;;;8.80
68027;BMP180;54819;48.030;14.710;2022-11-15T17:19:17;96901.80;;;8.80
68027;BMP180;54819;48.030;14.710;2022-11-15T17:21:46;96898.60;;;8.70
68027;BMP180;54819;48.030;14.710;2022-11-15T17:24:15;96901.20;;;8.70
68027;BMP180;54819;48.030;14.710;2022-11-15T17:26:43;96908.20;;;8.70